Libertyville, Indiana
Current Conditions -  °F | °C
As of 6:53 PM on Saturday 25 Oct 2014 (Local Time) from KHUF Reporting Station
Haze Haze  
Wind Chill: 72°   Ceiling: Unl
Heat Index: 72°   Visibility: 3mi
Dew Point: 47°   Wind: 5mph
Humidity: 41%   Direction: 280°W
Pressure: 29.96"   Gusts: NA
Location:  39.5107°N, 87.4772°W
Report Text: KHUF 252253Z 28004KT 3SM HZ CLR 22/08 A2996 RMK AO2 SLP141 T02220083
Loading
Personal Weather Stations






























Interactive Weather Map
Tropical Storm Tracking
New forecast layout! Learn more

10-Day Weather Forecast

Advertisements
Track Severe Weather on mobile